Time;durP1;ratioP1;P1;durP2;ratioP2;P2;SDS_P1;SDS_P2;PMS_P1;PMS_P2;Temp;Humidity;BMP_temperature;BMP_pressure;BME280_temperature;BME280_humidity;BME280_pressure;Samples;Min_cycle;Max_cycle;Signal;HPM_P1;HPM_P2
2022/12/21 00:05:57;;;;;;;11.55;6.72;;;8.70;99.90;;;;;;20641164;28;20912;-40
2022/12/21 00:16:03;;;;;;;8.30;4.97;;;8.60;99.90;;;;;;20636792;28;20041;-40
2022/12/21 00:26:07;;;;;;;8.93;5.93;;;8.50;99.90;;;;;;20659134;28;20737;-40
2022/12/21 00:36:11;;;;;;;7.90;4.20;;;8.40;99.90;;;;;;20656166;28;20892;-40
2022/12/21 00:46:19;;;;;;;9.23;3.60;;;8.20;99.90;;;;;;20654736;28;20465;-40
2022/12/21 00:56:20;;;;;;;;;;;8.00;99.90;;;;;;20649845;28;20130;-40
2022/12/21 01:06:23;;;;;;;6.90;2.58;;;7.80;99.90;;;;;;20657644;28;19940;-40
2022/12/21 01:16:30;;;;;;;4.20;2.35;;;7.70;99.90;;;;;;20653560;28;20085;-40
2022/12/21 01:26:32;;;;;;;16.30;4.32;;;7.60;99.90;;;;;;20647875;28;20057;-40
2022/12/21 01:36:33;;;;;;;7.78;3.53;;;7.50;99.90;;;;;;20660719;28;20323;-40
2022/12/21 01:46:45;;;;;;;8.00;5.30;;;7.30;99.90;;;;;;20659786;28;20050;-40
2022/12/21 01:56:50;;;;;;;6.32;4.32;;;7.40;99.90;;;;;;20663768;28;20131;-40
2022/12/21 02:06:58;;;;;;;11.73;7.45;;;7.50;99.90;;;;;;20676179;28;20497;-40
2022/12/21 02:17:26;;;;;;;8.27;5.00;;;7.50;99.90;;;;;;20668464;28;20564;-40
2022/12/21 02:27:54;;;;;;;8.67;5.47;;;7.60;99.90;;;;;;20664832;28;20544;-40
2022/12/21 02:38:27;;;;;;;13.03;7.87;;;7.60;99.90;;;;;;20673354;28;20217;-40
2022/12/21 02:48:37;;;;;;;11.52;6.38;;;7.60;99.90;;;;;;20660482;28;20419;-40
2022/12/21 02:58:38;;;;;;;15.88;7.45;;;7.60;99.90;;;;;;20659924;28;20188;-40
2022/12/21 03:09:17;;;;;;;15.18;8.20;;;7.60;99.90;;;;;;20660710;28;20041;-40
2022/12/21 03:19:57;;;;;;;10.93;6.85;;;7.70;99.90;;;;;;20652662;28;21318;-40
2022/12/21 03:30:06;;;;;;;10.88;5.55;;;7.60;99.90;;;;;;20651286;28;20065;-39
2022/12/21 03:40:13;;;;;;;12.27;7.95;;;7.60;99.90;;;;;;20662048;28;20988;-40
2022/12/21 03:50:19;;;;;;;15.52;7.60;;;7.60;99.90;;;;;;20666678;28;20073;-40
2022/12/21 04:00:20;;;;;;;10.33;7.30;;;7.50;99.90;;;;;;20653115;28;20580;-40
2022/12/21 04:10:23;;;;;;;16.13;9.20;;;7.50;99.90;;;;;;20657617;28;20387;-40
2022/12/21 04:20:24;;;;;;;22.20;9.05;;;7.60;99.90;;;;;;20662368;28;20190;-40
2022/12/21 04:30:26;;;;;;;11.52;6.75;;;7.60;99.90;;;;;;20655849;28;20512;-40
2022/12/21 04:40:27;;;;;;;14.00;6.82;;;7.50;99.90;;;;;;20652012;28;20065;-40
2022/12/21 04:50:28;;;;;;;11.15;6.85;;;7.50;99.90;;;;;;20660069;28;20056;-40
2022/12/21 05:00:29;;;;;;;17.77;8.18;;;7.40;99.90;;;;;;20661634;28;20053;-40
2022/12/21 05:10:30;;;;;;;10.57;7.20;;;7.30;99.90;;;;;;20655460;28;20045;-40
2022/12/21 05:20:31;;;;;;;19.88;8.23;;;7.20;99.90;;;;;;20659048;28;20074;-40
2022/12/21 05:30:33;;;;;;;12.27;6.40;;;7.20;99.90;;;;;;20667581;28;20889;-40
2022/12/21 05:40:34;;;;;;;11.98;7.22;;;7.20;99.90;;;;;;20670777;28;20604;-40
2022/12/21 05:50:38;;;;;;;16.45;8.88;;;7.20;99.90;;;;;;20672411;28;20531;-40
2022/12/21 06:00:40;;;;;;;17.10;9.45;;;7.20;99.90;;;;;;20670642;28;21091;-40
2022/12/21 06:10:41;;;;;;;20.38;9.75;;;7.20;99.90;;;;;;20681462;28;20100;-40
2022/12/21 06:20:50;;;;;;;14.93;9.77;;;7.30;99.90;;;;;;20670028;28;20080;-40
2022/12/21 06:31:00;;;;;;;34.42;15.88;;;7.40;99.90;;;;;;20660098;28;20077;-39
2022/12/21 06:41:07;;;;;;;47.47;19.17;;;7.40;99.90;;;;;;20657683;28;20640;-40
2022/12/21 06:51:13;;;;;;;47.23;19.53;;;7.40;99.90;;;;;;20659976;28;20683;-40
2022/12/21 07:01:19;;;;;;;33.78;16.60;;;7.60;99.90;;;;;;20665097;28;20085;-40
2022/12/21 07:11:23;;;;;;;19.80;10.97;;;7.60;99.90;;;;;;20657473;28;20305;-40
2022/12/21 07:21:24;;;;;;;22.55;11.25;;;7.60;99.90;;;;;;20658930;28;20126;-40
2022/12/21 07:31:27;;;;;;;26.00;14.57;;;7.50;99.90;;;;;;20650255;28;20133;-40
2022/12/21 07:41:28;;;;;;;32.03;14.48;;;7.50;99.90;;;;;;20658274;28;20204;-40
2022/12/21 07:51:29;;;;;;;25.73;13.15;;;7.60;99.90;;;;;;20652460;28;20030;-40
2022/12/21 08:01:30;;;;;;;20.30;13.45;;;7.50;99.90;;;;;;20644447;28;20128;-40
2022/12/21 08:11:31;;;;;;;17.95;10.82;;;7.50;99.90;;;;;;20657442;28;20037;-40
2022/12/21 08:21:32;;;;;;;21.73;12.95;;;7.50;99.90;;;;;;20677609;28;20053;-39
2022/12/21 08:31:35;;;;;;;25.15;12.75;;;7.50;99.90;;;;;;20658931;28;20082;-40
2022/12/21 08:41:37;;;;;;;23.58;13.68;;;7.40;99.90;;;;;;20668398;28;20116;-40
2022/12/21 08:51:38;;;;;;;24.02;13.07;;;7.30;99.90;;;;;;20661819;28;20588;-40
2022/12/21 09:01:39;;;;;;;22.30;13.60;;;7.20;99.90;;;;;;20666895;28;20046;-40
2022/12/21 09:11:40;;;;;;;32.63;14.90;;;7.20;99.90;;;;;;20675046;28;20053;-41
2022/12/21 09:21:41;;;;;;;25.90;14.80;;;7.10;99.90;;;;;;20656208;28;20115;-40
2022/12/21 09:31:43;;;;;;;25.80;13.88;;;7.10;99.90;;;;;;20662709;28;20139;-40
2022/12/21 09:42:14;;;;;;;22.98;11.68;;;7.20;99.90;;;;;;20665777;28;20077;-40
2022/12/21 09:52:24;;;;;;;20.15;10.48;;;7.30;99.90;;;;;;20650893;28;20129;-40
2022/12/21 10:02:56;;;;;;;16.40;8.68;;;7.30;99.90;;;;;;20638311;28;20715;-40
2022/12/21 10:13:20;;;;;;;15.40;8.10;;;7.40;99.90;;;;;;20625212;28;20128;-40
2022/12/21 10:23:27;;;;;;;17.02;9.70;;;7.40;99.90;;;;;;20665864;28;20737;-40
2022/12/21 10:33:29;;;;;;;17.13;9.10;;;7.60;99.90;;;;;;20672540;28;20112;-40
2022/12/21 10:43:39;;;;;;;18.23;8.73;;;7.90;99.90;;;;;;20682781;28;20076;-40
2022/12/21 10:53:57;;;;;;;11.85;7.90;;;8.20;99.90;;;;;;20680890;28;20038;-40
2022/12/21 11:04:09;;;;;;;14.38;8.73;;;8.10;99.90;;;;;;20680681;28;20216;-40
2022/12/21 11:14:15;;;;;;;20.23;8.80;;;8.00;99.90;;;;;;20647982;28;21491;-40
2022/12/21 11:24:23;;;;;;;16.30;7.82;;;7.90;99.90;;;;;;20662657;28;21085;-40
2022/12/21 11:34:35;;;;;;;12.57;7.82;;;7.90;99.90;;;;;;20649133;28;20188;-39
2022/12/21 11:44:36;;;;;;;42.72;8.75;;;7.90;99.90;;;;;;20671301;28;20107;-40
2022/12/21 11:55:03;;;;;;;12.63;7.15;;;7.80;99.90;;;;;;20673131;28;20120;-39
2022/12/21 12:05:34;;;;;;;13.40;7.97;;;7.70;99.90;;;;;;20686143;28;20049;-40
2022/12/21 12:15:39;;;;;;;20.38;9.23;;;7.80;99.90;;;;;;20639875;28;20836;-40
2022/12/21 12:26:08;;;;;;;17.52;7.68;;;7.90;99.90;;;;;;20653870;28;20530;-40
2022/12/21 12:36:18;;;;;;;19.00;8.68;;;8.00;99.90;;;;;;20646643;28;20884;-40
2022/12/21 12:46:42;;;;;;;10.85;6.05;;;7.90;99.90;;;;;;20660566;28;20069;-40
2022/12/21 12:56:59;;;;;;;16.17;6.45;;;8.10;99.90;;;;;;20669144;28;20493;-40
2022/12/21 13:07:18;;;;;;;11.53;6.47;;;8.10;99.90;;;;;;20665011;28;20045;-40
2022/12/21 13:17:22;;;;;;;13.88;7.53;;;8.20;99.90;;;;;;20593178;28;20766;-40
2022/12/21 13:27:29;;;;;;;14.55;7.85;;;8.30;99.90;;;;;;20631891;28;20169;-40
2022/12/21 13:37:30;;;;;;;12.33;8.30;;;8.50;99.90;;;;;;20622813;28;20047;-40
2022/12/21 13:47:33;;;;;;;10.77;5.30;;;8.60;99.90;;;;;;20659027;28;20128;-40
2022/12/21 13:57:56;;;;;;;11.02;6.45;;;8.60;99.90;;;;;;20645235;28;20120;-41
2022/12/21 14:08:12;;;;;;;13.88;6.85;;;8.60;99.90;;;;;;20651679;28;20165;-40
2022/12/21 14:18:17;;;;;;;9.13;5.50;;;8.40;99.90;;;;;;20656701;28;21799;-40
2022/12/21 14:28:24;;;;;;;11.98;5.75;;;8.40;99.90;;;;;;20644296;28;20137;-41
2022/12/21 14:38:27;;;;;;;8.60;4.90;;;8.40;99.90;;;;;;20639427;28;20129;-40
2022/12/21 14:48:28;;;;;;;9.23;5.72;;;8.40;99.90;;;;;;20679549;28;20081;-41
2022/12/21 14:58:44;;;;;;;7.72;3.47;;;8.30;99.90;;;;;;20664679;28;20053;-40
2022/12/21 15:08:46;;;;;;;11.20;6.70;;;8.30;99.90;;;;;;20672911;28;20085;-40
2022/12/21 15:18:52;;;;;;;12.80;5.82;;;8.30;99.90;;;;;;20653105;28;20129;-41
2022/12/21 15:28:55;;;;;;;16.35;7.35;;;8.20;99.90;;;;;;20648496;28;20415;-40
2022/12/21 15:38:57;;;;;;;14.23;5.80;;;8.20;99.90;;;;;;20623396;28;20058;-41
2022/12/21 15:49:09;;;;;;;8.88;4.65;;;8.10;99.90;;;;;;20634564;28;20129;-40
2022/12/21 15:59:14;;;;;;;8.95;5.32;;;8.20;99.90;;;;;;20641663;28;20865;-41
2022/12/21 16:09:15;;;;;;;9.88;4.53;;;8.20;99.90;;;;;;20630034;28;20136;-40
2022/12/21 16:19:29;;;;;;;14.65;6.40;;;8.20;99.90;;;;;;20631193;28;20386;-40
2022/12/21 16:29:39;;;;;;;8.45;5.88;;;8.30;99.90;;;;;;20623243;28;20050;-41
2022/12/21 16:39:42;;;;;;;11.30;5.22;;;8.20;99.90;;;;;;20539704;28;1999128;-41
2022/12/21 16:49:43;;;;;;;8.70;5.18;;;8.20;99.90;;;;;;20582467;28;20498;-40
2022/12/21 16:59:46;;;;;;;11.13;6.47;;;8.10;99.90;;;;;;20613740;28;20490;-41
2022/12/21 17:10:21;;;;;;;16.15;6.20;;;8.10;99.90;;;;;;20596097;28;20502;-40
2022/12/21 17:20:32;;;;;;;9.95;5.28;;;8.10;99.90;;;;;;20566214;28;20769;-41
2022/12/21 17:30:37;;;;;;;11.80;4.43;;;8.20;99.90;;;;;;20598312;28;20501;-40
2022/12/21 17:40:38;;;;;;;9.00;4.20;;;8.30;99.90;;;;;;20623728;28;20085;-40
2022/12/21 17:50:41;;;;;;;7.25;4.57;;;8.20;99.90;;;;;;20651241;28;20045;-40
2022/12/21 18:00:48;;;;;;;9.80;5.57;;;8.10;99.90;;;;;;20653624;28;20097;-40
2022/12/21 18:10:49;;;;;;;15.90;6.63;;;8.10;99.90;;;;;;20621881;28;20730;-40
2022/12/21 18:20:52;;;;;;;10.60;5.15;;;8.10;99.90;;;;;;20599733;28;20091;-40
2022/12/21 18:31:01;;;;;;;11.35;6.65;;;8.10;99.90;;;;;;20612217;28;20092;-40
2022/12/21 18:41:02;;;;;;;11.77;7.22;;;8.20;99.90;;;;;;20611736;28;20050;-40
2022/12/21 18:51:03;;;;;;;16.55;8.30;;;8.20;99.90;;;;;;20633763;28;20089;-39
2022/12/21 19:01:29;;;;;;;11.07;7.13;;;8.30;99.90;;;;;;20665594;28;20074;-39
2022/12/21 19:11:30;;;;;;;12.80;9.30;;;8.30;99.90;;;;;;20666073;28;20810;-40
2022/12/21 19:21:34;;;;;;;10.50;6.75;;;8.40;99.90;;;;;;20653415;28;20141;-40
2022/12/21 19:31:35;;;;;;;13.85;6.80;;;8.50;99.90;;;;;;20645213;28;20514;-39
2022/12/21 19:41:39;;;;;;;14.27;8.38;;;8.50;99.90;;;;;;20642743;28;20128;-39
2022/12/21 19:51:40;;;;;;;21.30;14.82;;;8.60;99.90;;;;;;20640110;28;20284;-39
2022/12/21 20:01:41;;;;;;;19.45;9.75;;;8.70;99.90;;;;;;20641302;28;20065;-39
2022/12/21 20:11:43;;;;;;;12.80;8.82;;;8.70;99.90;;;;;;20636821;28;20259;-39
2022/12/21 20:21:44;;;;;;;28.08;13.63;;;8.70;99.90;;;;;;20646931;28;20179;-39
2022/12/21 20:31:52;;;;;;;15.10;8.15;;;8.80;99.90;;;;;;20646646;28;20105;-39
2022/12/21 20:52:21;;;;;;;12.00;7.35;;;8.90;99.90;;;;;;20631663;28;20916;-40
2022/12/21 21:02:25;;;;;;;20.23;11.32;;;8.90;99.90;;;;;;20638914;28;20188;-39
2022/12/21 21:12:26;;;;;;;17.35;10.98;;;8.90;99.90;;;;;;20653175;28;20124;-40
2022/12/21 21:32:56;;;;;;;21.33;11.13;;;9.00;99.90;;;;;;20687344;28;20502;-40
2022/12/21 21:42:57;;;;;;;13.82;7.68;;;8.90;99.90;;;;;;20674031;28;20199;-39
2022/12/21 21:52:59;;;;;;;16.20;9.38;;;9.00;99.90;;;;;;20658514;28;20602;-40
2022/12/21 22:03:01;;;;;;;14.07;8.02;;;9.00;99.90;;;;;;20665712;28;20064;-39
2022/12/21 22:13:05;;;;;;;19.38;10.57;;;9.00;99.90;;;;;;20681698;28;20096;-40
2022/12/21 22:33:33;;;;;;;13.25;8.27;;;9.00;99.90;;;;;;20665047;28;20077;-40
2022/12/21 22:43:34;;;;;;;12.88;8.05;;;9.00;99.90;;;;;;20676271;28;20537;-40
2022/12/21 22:53:45;;;;;;;18.85;10.23;;;9.00;99.90;;;;;;20687759;28;20103;-40
2022/12/21 23:03:46;;;;;;;11.38;6.93;;;9.10;99.90;;;;;;20676828;28;20088;-39
2022/12/21 23:45:04;;;;;;;16.42;10.70;;;9.20;99.90;;;;;;20687589;28;20049;-40
